sensor_id;sensor_type;location;lat;lon;timestamp;P1;durP1;ratioP1;P2;durP2;ratioP2
1957;SDS011;979;51.076;13.748;2023-04-29T00:00:10;36.93;;;33.50;;
1957;SDS011;979;51.076;13.748;2023-04-29T00:02:44;35.17;;;31.80;;
1957;SDS011;979;51.076;13.748;2023-04-29T00:05:14;35.13;;;31.97;;
1957;SDS011;979;51.076;13.748;2023-04-29T00:07:44;36.90;;;33.43;;
1957;SDS011;979;51.076;13.748;2023-04-29T00:10:14;35.43;;;32.40;;
1957;SDS011;979;51.076;13.748;2023-04-29T00:12:43;36.10;;;33.03;;
1957;SDS011;979;51.076;13.748;2023-04-29T00:15:13;36.50;;;33.30;;
1957;SDS011;979;51.076;13.748;2023-04-29T00:17:42;37.70;;;33.97;;
1957;SDS011;979;51.076;13.748;2023-04-29T00:20:14;35.87;;;32.43;;
1957;SDS011;979;51.076;13.748;2023-04-29T00:22:43;36.57;;;33.10;;
1957;SDS011;979;51.076;13.748;2023-04-29T00:25:11;36.07;;;32.97;;
1957;SDS011;979;51.076;13.748;2023-04-29T00:27:42;35.23;;;31.83;;
1957;SDS011;979;51.076;13.748;2023-04-29T00:30:27;35.23;;;32.40;;
1957;SDS011;979;51.076;13.748;2023-04-29T00:32:56;34.70;;;31.63;;
1957;SDS011;979;51.076;13.748;2023-04-29T00:35:24;36.17;;;33.03;;
1957;SDS011;979;51.076;13.748;2023-04-29T00:37:54;36.33;;;33.10;;
1957;SDS011;979;51.076;13.748;2023-04-29T00:40:23;35.30;;;32.30;;
1957;SDS011;979;51.076;13.748;2023-04-29T00:42:56;36.67;;;33.33;;
1957;SDS011;979;51.076;13.748;2023-04-29T00:45:25;35.80;;;32.80;;
1957;SDS011;979;51.076;13.748;2023-04-29T00:47:55;37.43;;;34.03;;
1957;SDS011;979;51.076;13.748;2023-04-29T00:50:24;35.90;;;32.60;;
1957;SDS011;979;51.076;13.748;2023-04-29T00:52:54;37.13;;;33.57;;
1957;SDS011;979;51.076;13.748;2023-04-29T00:55:23;37.43;;;34.13;;
1957;SDS011;979;51.076;13.748;2023-04-29T00:57:56;36.70;;;33.37;;
1957;SDS011;979;51.076;13.748;2023-04-29T01:00:24;36.67;;;33.40;;
1957;SDS011;979;51.076;13.748;2023-04-29T01:02:53;37.90;;;34.50;;
1957;SDS011;979;51.076;13.748;2023-04-29T01:05:25;37.10;;;33.50;;
1957;SDS011;979;51.076;13.748;2023-04-29T01:08:00;36.53;;;33.13;;
1957;SDS011;979;51.076;13.748;2023-04-29T01:10:41;37.73;;;34.20;;
1957;SDS011;979;51.076;13.748;2023-04-29T01:13:16;35.23;;;32.20;;
1957;SDS011;979;51.076;13.748;2023-04-29T01:15:53;38.40;;;34.70;;
1957;SDS011;979;51.076;13.748;2023-04-29T01:18:34;39.97;;;35.90;;
1957;SDS011;979;51.076;13.748;2023-04-29T01:21:06;37.63;;;34.40;;
1957;SDS011;979;51.076;13.748;2023-04-29T01:23:38;36.80;;;33.63;;
1957;SDS011;979;51.076;13.748;2023-04-29T01:26:11;37.73;;;34.30;;
1957;SDS011;979;51.076;13.748;2023-04-29T01:29:19;36.50;;;33.00;;
1957;SDS011;979;51.076;13.748;2023-04-29T01:31:57;35.47;;;32.50;;
1957;SDS011;979;51.076;13.748;2023-04-29T01:34:39;36.10;;;32.50;;
1957;SDS011;979;51.076;13.748;2023-04-29T01:37:16;36.60;;;33.30;;
1957;SDS011;979;51.076;13.748;2023-04-29T01:39:54;39.10;;;35.50;;
1957;SDS011;979;51.076;13.748;2023-04-29T01:42:35;35.87;;;32.80;;
1957;SDS011;979;51.076;13.748;2023-04-29T01:45:16;37.43;;;33.70;;
1957;SDS011;979;51.076;13.748;2023-04-29T01:47:47;37.27;;;33.60;;
1957;SDS011;979;51.076;13.748;2023-04-29T01:50:18;37.37;;;33.80;;
1957;SDS011;979;51.076;13.748;2023-04-29T01:52:50;37.60;;;34.30;;
1957;SDS011;979;51.076;13.748;2023-04-29T01:55:22;39.90;;;35.80;;
1957;SDS011;979;51.076;13.748;2023-04-29T01:58:14;39.77;;;35.97;;
1957;SDS011;979;51.076;13.748;2023-04-29T02:01:07;41.37;;;37.20;;
1957;SDS011;979;51.076;13.748;2023-04-29T02:03:37;39.37;;;35.87;;
1957;SDS011;979;51.076;13.748;2023-04-29T02:06:08;39.40;;;35.47;;
1957;SDS011;979;51.076;13.748;2023-04-29T02:08:37;40.40;;;36.27;;
1957;SDS011;979;51.076;13.748;2023-04-29T02:11:07;38.20;;;34.60;;
1957;SDS011;979;51.076;13.748;2023-04-29T02:13:39;39.17;;;35.37;;
1957;SDS011;979;51.076;13.748;2023-04-29T02:16:09;39.10;;;35.60;;
1957;SDS011;979;51.076;13.748;2023-04-29T02:18:51;40.30;;;36.30;;
1957;SDS011;979;51.076;13.748;2023-04-29T02:21:20;41.47;;;37.10;;
1957;SDS011;979;51.076;13.748;2023-04-29T02:23:49;40.97;;;37.20;;
1957;SDS011;979;51.076;13.748;2023-04-29T02:26:23;40.93;;;37.03;;
1957;SDS011;979;51.076;13.748;2023-04-29T02:28:54;42.23;;;38.00;;
1957;SDS011;979;51.076;13.748;2023-04-29T02:31:25;39.90;;;36.20;;
1957;SDS011;979;51.076;13.748;2023-04-29T02:33:54;41.67;;;37.30;;
1957;SDS011;979;51.076;13.748;2023-04-29T02:36:23;41.23;;;36.83;;
1957;SDS011;979;51.076;13.748;2023-04-29T02:38:52;40.63;;;36.60;;
1957;SDS011;979;51.076;13.748;2023-04-29T02:41:24;42.60;;;38.23;;
1957;SDS011;979;51.076;13.748;2023-04-29T02:43:58;43.17;;;37.67;;
1957;SDS011;979;51.076;13.748;2023-04-29T02:46:27;40.33;;;36.13;;
1957;SDS011;979;51.076;13.748;2023-04-29T02:48:55;38.80;;;35.00;;
1957;SDS011;979;51.076;13.748;2023-04-29T02:51:24;39.40;;;35.57;;
1957;SDS011;979;51.076;13.748;2023-04-29T02:53:53;39.27;;;35.67;;
1957;SDS011;979;51.076;13.748;2023-04-29T02:56:25;39.27;;;35.50;;
1957;SDS011;979;51.076;13.748;2023-04-29T02:58:55;39.73;;;35.87;;
1957;SDS011;979;51.076;13.748;2023-04-29T03:01:23;39.00;;;35.27;;
1957;SDS011;979;51.076;13.748;2023-04-29T03:03:52;37.60;;;33.70;;
1957;SDS011;979;51.076;13.748;2023-04-29T03:06:21;38.17;;;34.00;;
1957;SDS011;979;51.076;13.748;2023-04-29T03:08:50;37.30;;;32.83;;
1957;SDS011;979;51.076;13.748;2023-04-29T03:11:19;39.00;;;35.07;;
1957;SDS011;979;51.076;13.748;2023-04-29T03:13:51;39.93;;;35.70;;
1957;SDS011;979;51.076;13.748;2023-04-29T03:16:22;37.20;;;33.77;;
1957;SDS011;979;51.076;13.748;2023-04-29T03:18:51;40.50;;;34.40;;
1957;SDS011;979;51.076;13.748;2023-04-29T03:21:19;37.73;;;34.17;;
1957;SDS011;979;51.076;13.748;2023-04-29T03:23:48;36.80;;;33.13;;
1957;SDS011;979;51.076;13.748;2023-04-29T03:26:23;37.57;;;33.90;;
1957;SDS011;979;51.076;13.748;2023-04-29T03:28:56;37.30;;;33.90;;
1957;SDS011;979;51.076;13.748;2023-04-29T03:31:25;38.13;;;34.17;;
1957;SDS011;979;51.076;13.748;2023-04-29T03:33:54;35.63;;;32.23;;
1957;SDS011;979;51.076;13.748;2023-04-29T03:36:23;35.00;;;31.80;;
1957;SDS011;979;51.076;13.748;2023-04-29T03:39:04;35.47;;;32.00;;
1957;SDS011;979;51.076;13.748;2023-04-29T03:41:33;35.73;;;32.23;;
1957;SDS011;979;51.076;13.748;2023-04-29T03:44:06;35.63;;;32.50;;
1957;SDS011;979;51.076;13.748;2023-04-29T03:46:34;32.50;;;29.67;;
1957;SDS011;979;51.076;13.748;2023-04-29T03:49:03;34.97;;;31.87;;
1957;SDS011;979;51.076;13.748;2023-04-29T03:51:32;32.63;;;29.80;;
1957;SDS011;979;51.076;13.748;2023-04-29T03:54:10;33.17;;;30.10;;
1957;SDS011;979;51.076;13.748;2023-04-29T03:56:40;32.00;;;28.93;;
1957;SDS011;979;51.076;13.748;2023-04-29T03:59:10;30.90;;;28.00;;
1957;SDS011;979;51.076;13.748;2023-04-29T04:01:40;31.57;;;28.73;;
1957;SDS011;979;51.076;13.748;2023-04-29T04:04:08;30.30;;;27.57;;
1957;SDS011;979;51.076;13.748;2023-04-29T04:06:42;31.63;;;28.77;;
1957;SDS011;979;51.076;13.748;2023-04-29T04:09:19;32.07;;;29.30;;
1957;SDS011;979;51.076;13.748;2023-04-29T04:11:48;29.70;;;27.30;;
1957;SDS011;979;51.076;13.748;2023-04-29T04:14:21;29.57;;;27.17;;
1957;SDS011;979;51.076;13.748;2023-04-29T04:16:53;31.13;;;28.33;;
1957;SDS011;979;51.076;13.748;2023-04-29T04:19:23;30.20;;;27.77;;
1957;SDS011;979;51.076;13.748;2023-04-29T04:24:31;28.73;;;26.70;;
1957;SDS011;979;51.076;13.748;2023-04-29T04:27:01;29.70;;;27.40;;
1957;SDS011;979;51.076;13.748;2023-04-29T04:29:38;29.90;;;27.30;;
1957;SDS011;979;51.076;13.748;2023-04-29T04:32:14;28.20;;;25.80;;
1957;SDS011;979;51.076;13.748;2023-04-29T04:34:43;28.73;;;26.47;;
1957;SDS011;979;51.076;13.748;2023-04-29T04:37:14;27.70;;;25.60;;
1957;SDS011;979;51.076;13.748;2023-04-29T04:39:49;27.07;;;25.20;;
1957;SDS011;979;51.076;13.748;2023-04-29T04:42:18;26.17;;;24.20;;
1957;SDS011;979;51.076;13.748;2023-04-29T04:44:51;24.97;;;23.27;;
1957;SDS011;979;51.076;13.748;2023-04-29T04:47:40;26.07;;;24.07;;
1957;SDS011;979;51.076;13.748;2023-04-29T04:50:19;26.63;;;24.70;;
1957;SDS011;979;51.076;13.748;2023-04-29T04:52:49;26.40;;;24.60;;
1957;SDS011;979;51.076;13.748;2023-04-29T04:55:39;26.10;;;24.30;;
1957;SDS011;979;51.076;13.748;2023-04-29T04:58:08;26.03;;;24.20;;
1957;SDS011;979;51.076;13.748;2023-04-29T05:00:44;26.33;;;24.17;;
1957;SDS011;979;51.076;13.748;2023-04-29T05:03:15;25.30;;;23.50;;
1957;SDS011;979;51.076;13.748;2023-04-29T05:05:44;25.53;;;23.57;;
1957;SDS011;979;51.076;13.748;2023-04-29T05:08:13;25.83;;;23.93;;
1957;SDS011;979;51.076;13.748;2023-04-29T05:10:45;25.23;;;23.40;;
1957;SDS011;979;51.076;13.748;2023-04-29T05:13:14;26.93;;;24.83;;
1957;SDS011;979;51.076;13.748;2023-04-29T05:15:45;28.07;;;25.77;;
1957;SDS011;979;51.076;13.748;2023-04-29T05:18:19;28.07;;;26.10;;
1957;SDS011;979;51.076;13.748;2023-04-29T05:20:49;29.50;;;27.30;;
1957;SDS011;979;51.076;13.748;2023-04-29T05:23:18;28.63;;;26.47;;
1957;SDS011;979;51.076;13.748;2023-04-29T05:25:49;29.70;;;27.20;;
1957;SDS011;979;51.076;13.748;2023-04-29T05:28:20;27.53;;;25.53;;
1957;SDS011;979;51.076;13.748;2023-04-29T05:30:51;27.80;;;25.70;;
1957;SDS011;979;51.076;13.748;2023-04-29T05:33:28;27.93;;;25.83;;
1957;SDS011;979;51.076;13.748;2023-04-29T05:35:57;29.73;;;27.43;;
1957;SDS011;979;51.076;13.748;2023-04-29T05:38:28;29.67;;;27.37;;
1957;SDS011;979;51.076;13.748;2023-04-29T05:41:02;27.20;;;25.40;;
1957;SDS011;979;51.076;13.748;2023-04-29T05:43:56;27.23;;;25.40;;
1957;SDS011;979;51.076;13.748;2023-04-29T05:46:28;27.43;;;25.23;;
1957;SDS011;979;51.076;13.748;2023-04-29T05:48:57;26.17;;;24.17;;
1957;SDS011;979;51.076;13.748;2023-04-29T05:51:26;26.97;;;25.03;;
1957;SDS011;979;51.076;13.748;2023-04-29T05:53:54;28.87;;;26.60;;
1957;SDS011;979;51.076;13.748;2023-04-29T05:56:25;26.73;;;24.77;;
1957;SDS011;979;51.076;13.748;2023-04-29T05:58:54;27.60;;;25.60;;
1957;SDS011;979;51.076;13.748;2023-04-29T06:01:23;29.13;;;26.83;;
1957;SDS011;979;51.076;13.748;2023-04-29T06:03:53;28.80;;;26.70;;
1957;SDS011;979;51.076;13.748;2023-04-29T06:06:37;29.97;;;27.63;;
1957;SDS011;979;51.076;13.748;2023-04-29T06:09:44;28.73;;;26.77;;
1957;SDS011;979;51.076;13.748;2023-04-29T06:12:12;28.80;;;26.70;;
1957;SDS011;979;51.076;13.748;2023-04-29T06:14:44;28.87;;;26.73;;
1957;SDS011;979;51.076;13.748;2023-04-29T06:17:12;28.27;;;26.27;;
1957;SDS011;979;51.076;13.748;2023-04-29T06:19:49;28.20;;;26.00;;
1957;SDS011;979;51.076;13.748;2023-04-29T06:22:52;30.97;;;28.40;;
1957;SDS011;979;51.076;13.748;2023-04-29T06:25:23;29.43;;;27.33;;
1957;SDS011;979;51.076;13.748;2023-04-29T06:27:52;29.97;;;27.77;;
1957;SDS011;979;51.076;13.748;2023-04-29T06:30:23;34.07;;;31.27;;
1957;SDS011;979;51.076;13.748;2023-04-29T06:32:55;28.97;;;26.97;;
1957;SDS011;979;51.076;13.748;2023-04-29T06:35:25;27.03;;;25.23;;
1957;SDS011;979;51.076;13.748;2023-04-29T06:37:59;27.60;;;25.70;;
1957;SDS011;979;51.076;13.748;2023-04-29T06:40:28;28.57;;;26.47;;
1957;SDS011;979;51.076;13.748;2023-04-29T06:43:05;26.50;;;24.80;;
1957;SDS011;979;51.076;13.748;2023-04-29T06:45:39;27.30;;;25.30;;
1957;SDS011;979;51.076;13.748;2023-04-29T06:48:19;28.33;;;26.23;;
1957;SDS011;979;51.076;13.748;2023-04-29T06:50:57;28.47;;;26.30;;
1957;SDS011;979;51.076;13.748;2023-04-29T06:53:26;28.77;;;26.43;;
1957;SDS011;979;51.076;13.748;2023-04-29T06:55:54;27.30;;;25.23;;
1957;SDS011;979;51.076;13.748;2023-04-29T06:58:22;27.53;;;25.80;;
1957;SDS011;979;51.076;13.748;2023-04-29T07:00:51;29.00;;;26.70;;
1957;SDS011;979;51.076;13.748;2023-04-29T07:03:20;27.30;;;25.20;;
1957;SDS011;979;51.076;13.748;2023-04-29T07:05:49;28.33;;;26.23;;
1957;SDS011;979;51.076;13.748;2023-04-29T07:08:18;27.13;;;25.20;;
1957;SDS011;979;51.076;13.748;2023-04-29T07:10:52;28.00;;;25.90;;
1957;SDS011;979;51.076;13.748;2023-04-29T07:13:22;26.57;;;24.70;;
1957;SDS011;979;51.076;13.748;2023-04-29T07:15:50;27.70;;;25.60;;
1957;SDS011;979;51.076;13.748;2023-04-29T07:18:19;27.97;;;25.90;;
1957;SDS011;979;51.076;13.748;2023-04-29T07:20:47;29.77;;;27.57;;
1957;SDS011;979;51.076;13.748;2023-04-29T07:23:21;31.37;;;28.97;;
1957;SDS011;979;51.076;13.748;2023-04-29T07:25:49;34.20;;;31.17;;
1957;SDS011;979;51.076;13.748;2023-04-29T07:28:19;36.37;;;33.27;;
1957;SDS011;979;51.076;13.748;2023-04-29T07:30:47;36.50;;;33.40;;
1957;SDS011;979;51.076;13.748;2023-04-29T07:33:16;35.47;;;32.20;;
1957;SDS011;979;51.076;13.748;2023-04-29T07:35:46;34.07;;;31.23;;
1957;SDS011;979;51.076;13.748;2023-04-29T07:38:18;35.23;;;32.13;;
1957;SDS011;979;51.076;13.748;2023-04-29T07:40:53;34.73;;;31.73;;
1957;SDS011;979;51.076;13.748;2023-04-29T07:43:28;33.73;;;30.90;;
1957;SDS011;979;51.076;13.748;2023-04-29T07:46:03;32.30;;;29.50;;
1957;SDS011;979;51.076;13.748;2023-04-29T07:48:35;29.07;;;26.67;;
1957;SDS011;979;51.076;13.748;2023-04-29T07:51:04;30.90;;;28.40;;
1957;SDS011;979;51.076;13.748;2023-04-29T07:53:36;29.80;;;27.53;;
1957;SDS011;979;51.076;13.748;2023-04-29T07:56:04;27.67;;;25.67;;
1957;SDS011;979;51.076;13.748;2023-04-29T07:58:34;28.13;;;25.93;;
1957;SDS011;979;51.076;13.748;2023-04-29T08:01:06;26.43;;;24.53;;
1957;SDS011;979;51.076;13.748;2023-04-29T08:03:36;27.20;;;25.17;;
1957;SDS011;979;51.076;13.748;2023-04-29T08:06:23;26.93;;;25.20;;
1957;SDS011;979;51.076;13.748;2023-04-29T08:09:22;26.90;;;25.00;;
1957;SDS011;979;51.076;13.748;2023-04-29T08:11:50;25.13;;;23.43;;
1957;SDS011;979;51.076;13.748;2023-04-29T08:14:19;25.00;;;23.47;;
1957;SDS011;979;51.076;13.748;2023-04-29T08:16:55;24.43;;;23.00;;
1957;SDS011;979;51.076;13.748;2023-04-29T08:19:23;25.50;;;23.93;;
1957;SDS011;979;51.076;13.748;2023-04-29T08:22:01;25.40;;;23.90;;
1957;SDS011;979;51.076;13.748;2023-04-29T08:24:38;26.73;;;24.87;;
1957;SDS011;979;51.076;13.748;2023-04-29T08:27:11;25.60;;;24.00;;
1957;SDS011;979;51.076;13.748;2023-04-29T08:29:39;24.50;;;23.10;;
1957;SDS011;979;51.076;13.748;2023-04-29T08:32:07;24.57;;;23.10;;
1957;SDS011;979;51.076;13.748;2023-04-29T08:34:36;25.97;;;24.47;;
1957;SDS011;979;51.076;13.748;2023-04-29T08:37:04;26.97;;;24.97;;
1957;SDS011;979;51.076;13.748;2023-04-29T08:39:32;24.00;;;22.40;;
1957;SDS011;979;51.076;13.748;2023-04-29T08:42:08;24.67;;;23.20;;
1957;SDS011;979;51.076;13.748;2023-04-29T08:44:37;23.80;;;22.33;;
1957;SDS011;979;51.076;13.748;2023-04-29T08:47:10;23.80;;;22.30;;
1957;SDS011;979;51.076;13.748;2023-04-29T08:49:41;25.40;;;23.90;;
1957;SDS011;979;51.076;13.748;2023-04-29T08:52:17;24.13;;;22.80;;
1957;SDS011;979;51.076;13.748;2023-04-29T08:54:53;24.90;;;23.30;;
1957;SDS011;979;51.076;13.748;2023-04-29T08:57:40;24.50;;;22.90;;
1957;SDS011;979;51.076;13.748;2023-04-29T09:00:09;25.10;;;23.50;;
1957;SDS011;979;51.076;13.748;2023-04-29T09:02:44;25.47;;;23.93;;
1957;SDS011;979;51.076;13.748;2023-04-29T09:06:26;26.20;;;24.60;;
1957;SDS011;979;51.076;13.748;2023-04-29T09:09:23;23.27;;;21.77;;
1957;SDS011;979;51.076;13.748;2023-04-29T09:11:51;24.87;;;23.30;;
1957;SDS011;979;51.076;13.748;2023-04-29T09:14:22;24.43;;;22.97;;
1957;SDS011;979;51.076;13.748;2023-04-29T09:16:52;25.67;;;24.07;;
1957;SDS011;979;51.076;13.748;2023-04-29T09:19:28;23.50;;;22.10;;
1957;SDS011;979;51.076;13.748;2023-04-29T09:22:04;24.90;;;23.27;;
1957;SDS011;979;51.076;13.748;2023-04-29T09:24:41;23.73;;;22.17;;
1957;SDS011;979;51.076;13.748;2023-04-29T09:27:11;23.30;;;21.90;;
1957;SDS011;979;51.076;13.748;2023-04-29T09:30:02;23.23;;;21.83;;
1957;SDS011;979;51.076;13.748;2023-04-29T09:32:34;23.07;;;21.67;;
1957;SDS011;979;51.076;13.748;2023-04-29T09:35:21;23.50;;;22.00;;
1957;SDS011;979;51.076;13.748;2023-04-29T09:37:50;24.50;;;22.80;;
1957;SDS011;979;51.076;13.748;2023-04-29T09:40:27;22.50;;;21.30;;
1957;SDS011;979;51.076;13.748;2023-04-29T09:43:01;23.13;;;21.77;;
1957;SDS011;979;51.076;13.748;2023-04-29T09:45:55;23.20;;;21.80;;
1957;SDS011;979;51.076;13.748;2023-04-29T09:48:31;22.77;;;21.43;;
1957;SDS011;979;51.076;13.748;2023-04-29T09:51:02;23.83;;;22.27;;
1957;SDS011;979;51.076;13.748;2023-04-29T09:53:31;23.50;;;22.00;;
1957;SDS011;979;51.076;13.748;2023-04-29T09:56:03;23.70;;;22.30;;
1957;SDS011;979;51.076;13.748;2023-04-29T09:58:34;23.40;;;21.77;;
1957;SDS011;979;51.076;13.748;2023-04-29T10:01:21;22.67;;;21.30;;
1957;SDS011;979;51.076;13.748;2023-04-29T10:04:14;22.20;;;20.90;;
1957;SDS011;979;51.076;13.748;2023-04-29T10:07:08;20.53;;;19.37;;
1957;SDS011;979;51.076;13.748;2023-04-29T10:09:41;23.80;;;22.20;;
1957;SDS011;979;51.076;13.748;2023-04-29T10:12:14;23.77;;;22.33;;
1957;SDS011;979;51.076;13.748;2023-04-29T10:14:46;23.77;;;22.27;;
1957;SDS011;979;51.076;13.748;2023-04-29T10:17:25;23.80;;;22.30;;
1957;SDS011;979;51.076;13.748;2023-04-29T10:20:08;23.77;;;22.30;;
1957;SDS011;979;51.076;13.748;2023-04-29T10:22:39;23.37;;;21.87;;
1957;SDS011;979;51.076;13.748;2023-04-29T10:25:21;24.83;;;23.10;;
1957;SDS011;979;51.076;13.748;2023-04-29T10:27:54;25.93;;;24.33;;
1957;SDS011;979;51.076;13.748;2023-04-29T10:30:24;25.23;;;23.53;;
1957;SDS011;979;51.076;13.748;2023-04-29T10:32:55;25.30;;;23.70;;
1957;SDS011;979;51.076;13.748;2023-04-29T10:35:27;25.83;;;24.13;;
1957;SDS011;979;51.076;13.748;2023-04-29T10:37:56;26.00;;;24.30;;
1957;SDS011;979;51.076;13.748;2023-04-29T10:40:29;26.07;;;24.37;;
1957;SDS011;979;51.076;13.748;2023-04-29T10:43:03;26.80;;;24.90;;
1957;SDS011;979;51.076;13.748;2023-04-29T10:45:32;27.23;;;25.23;;
1957;SDS011;979;51.076;13.748;2023-04-29T10:48:13;25.67;;;23.83;;
1957;SDS011;979;51.076;13.748;2023-04-29T10:50:58;27.60;;;25.60;;
1957;SDS011;979;51.076;13.748;2023-04-29T10:53:30;26.90;;;25.10;;
1957;SDS011;979;51.076;13.748;2023-04-29T10:56:04;25.03;;;23.40;;
1957;SDS011;979;51.076;13.748;2023-04-29T10:58:42;26.93;;;24.83;;
1957;SDS011;979;51.076;13.748;2023-04-29T11:01:11;26.13;;;24.30;;
1957;SDS011;979;51.076;13.748;2023-04-29T11:03:49;26.30;;;24.60;;
1957;SDS011;979;51.076;13.748;2023-04-29T11:07:28;25.60;;;23.90;;
1957;SDS011;979;51.076;13.748;2023-04-29T11:09:38;25.60;;;23.73;;
1957;SDS011;979;51.076;13.748;2023-04-29T11:12:48;25.20;;;23.37;;
1957;SDS011;979;51.076;13.748;2023-04-29T11:16:06;25.37;;;23.60;;
1957;SDS011;979;51.076;13.748;2023-04-29T11:19:05;24.97;;;23.37;;
1957;SDS011;979;51.076;13.748;2023-04-29T11:21:34;24.80;;;23.30;;
1957;SDS011;979;51.076;13.748;2023-04-29T11:24:05;26.37;;;24.63;;
1957;SDS011;979;51.076;13.748;2023-04-29T11:26:34;26.20;;;24.40;;
1957;SDS011;979;51.076;13.748;2023-04-29T11:29:07;25.63;;;24.03;;
1957;SDS011;979;51.076;13.748;2023-04-29T11:31:37;25.10;;;23.40;;
1957;SDS011;979;51.076;13.748;2023-04-29T11:34:07;25.40;;;24.00;;
1957;SDS011;979;51.076;13.748;2023-04-29T11:52:46;20.97;;;20.00;;
1957;SDS011;979;51.076;13.748;2023-04-29T11:55:21;20.87;;;19.93;;
1957;SDS011;979;51.076;13.748;2023-04-29T12:01:59;21.43;;;20.43;;
1957;SDS011;979;51.076;13.748;2023-04-29T12:04:27;21.30;;;20.27;;
1957;SDS011;979;51.076;13.748;2023-04-29T12:06:56;21.40;;;20.40;;
1957;SDS011;979;51.076;13.748;2023-04-29T12:09:26;19.83;;;18.90;;
1957;SDS011;979;51.076;13.748;2023-04-29T12:11:55;20.73;;;19.60;;
1957;SDS011;979;51.076;13.748;2023-04-29T12:14:23;21.40;;;20.30;;
1957;SDS011;979;51.076;13.748;2023-04-29T12:16:52;22.20;;;21.00;;
1957;SDS011;979;51.076;13.748;2023-04-29T12:19:21;23.07;;;21.80;;
1957;SDS011;979;51.076;13.748;2023-04-29T12:21:50;22.43;;;21.23;;
1957;SDS011;979;51.076;13.748;2023-04-29T12:24:19;25.00;;;23.33;;
1957;SDS011;979;51.076;13.748;2023-04-29T12:26:49;22.93;;;21.60;;
1957;SDS011;979;51.076;13.748;2023-04-29T12:29:19;23.50;;;22.20;;
1957;SDS011;979;51.076;13.748;2023-04-29T12:31:49;25.03;;;23.53;;
1957;SDS011;979;51.076;13.748;2023-04-29T12:34:25;23.93;;;22.53;;
1957;SDS011;979;51.076;13.748;2023-04-29T12:36:58;24.13;;;22.73;;
1957;SDS011;979;51.076;13.748;2023-04-29T12:39:27;25.23;;;23.80;;
1957;SDS011;979;51.076;13.748;2023-04-29T12:41:58;25.03;;;23.60;;
1957;SDS011;979;51.076;13.748;2023-04-29T12:44:51;24.93;;;23.50;;
1957;SDS011;979;51.076;13.748;2023-04-29T12:47:22;26.17;;;24.50;;
1957;SDS011;979;51.076;13.748;2023-04-29T12:50:06;25.07;;;23.57;;
1957;SDS011;979;51.076;13.748;2023-04-29T12:52:35;25.00;;;23.60;;
1957;SDS011;979;51.076;13.748;2023-04-29T12:55:04;24.30;;;23.00;;
1957;SDS011;979;51.076;13.748;2023-04-29T12:57:34;23.00;;;21.67;;
1957;SDS011;979;51.076;13.748;2023-04-29T13:00:03;23.63;;;22.37;;
1957;SDS011;979;51.076;13.748;2023-04-29T13:02:33;25.13;;;23.67;;
1957;SDS011;979;51.076;13.748;2023-04-29T13:05:02;24.07;;;22.70;;
1957;SDS011;979;51.076;13.748;2023-04-29T13:07:31;24.20;;;22.60;;
1957;SDS011;979;51.076;13.748;2023-04-29T13:09:59;24.40;;;22.80;;
1957;SDS011;979;51.076;13.748;2023-04-29T13:12:28;23.03;;;21.67;;
1957;SDS011;979;51.076;13.748;2023-04-29T13:15:00;23.87;;;22.40;;
1957;SDS011;979;51.076;13.748;2023-04-29T13:17:29;25.33;;;23.63;;
1957;SDS011;979;51.076;13.748;2023-04-29T13:20:01;24.50;;;22.80;;
1957;SDS011;979;51.076;13.748;2023-04-29T13:22:32;24.23;;;22.50;;
1957;SDS011;979;51.076;13.748;2023-04-29T13:25:03;25.80;;;24.10;;
1957;SDS011;979;51.076;13.748;2023-04-29T13:27:32;27.37;;;25.37;;
1957;SDS011;979;51.076;13.748;2023-04-29T13:30:02;26.23;;;24.23;;
1957;SDS011;979;51.076;13.748;2023-04-29T13:32:31;26.13;;;23.93;;
1957;SDS011;979;51.076;13.748;2023-04-29T13:35:11;28.93;;;26.60;;
1957;SDS011;979;51.076;13.748;2023-04-29T13:37:39;30.97;;;28.50;;
1957;SDS011;979;51.076;13.748;2023-04-29T13:40:23;27.97;;;25.73;;
1957;SDS011;979;51.076;13.748;2023-04-29T13:42:53;30.03;;;27.13;;
1957;SDS011;979;51.076;13.748;2023-04-29T13:45:33;27.93;;;25.63;;
1957;SDS011;979;51.076;13.748;2023-04-29T13:48:08;29.97;;;27.47;;
1957;SDS011;979;51.076;13.748;2023-04-29T13:50:56;29.27;;;26.67;;
1957;SDS011;979;51.076;13.748;2023-04-29T13:53:27;28.97;;;26.43;;
1957;SDS011;979;51.076;13.748;2023-04-29T13:55:59;32.07;;;28.93;;
1957;SDS011;979;51.076;13.748;2023-04-29T13:58:48;29.63;;;26.57;;
1957;SDS011;979;51.076;13.748;2023-04-29T14:01:37;29.23;;;26.30;;
1957;SDS011;979;51.076;13.748;2023-04-29T14:04:26;29.60;;;26.70;;
1957;SDS011;979;51.076;13.748;2023-04-29T14:06:55;28.00;;;25.40;;
1957;SDS011;979;51.076;13.748;2023-04-29T14:09:26;29.93;;;27.40;;
1957;SDS011;979;51.076;13.748;2023-04-29T14:11:57;28.00;;;25.50;;
1957;SDS011;979;51.076;13.748;2023-04-29T14:14:26;31.30;;;28.43;;
1957;SDS011;979;51.076;13.748;2023-04-29T14:16:56;30.50;;;27.70;;
1957;SDS011;979;51.076;13.748;2023-04-29T14:19:27;30.23;;;27.40;;
1957;SDS011;979;51.076;13.748;2023-04-29T14:21:59;30.50;;;27.83;;
1957;SDS011;979;51.076;13.748;2023-04-29T14:24:28;31.10;;;28.40;;
1957;SDS011;979;51.076;13.748;2023-04-29T14:26:57;29.70;;;27.30;;
1957;SDS011;979;51.076;13.748;2023-04-29T14:29:26;29.00;;;26.40;;
1957;SDS011;979;51.076;13.748;2023-04-29T14:32:02;30.67;;;28.07;;
1957;SDS011;979;51.076;13.748;2023-04-29T14:34:32;31.37;;;28.63;;
1957;SDS011;979;51.076;13.748;2023-04-29T14:37:01;32.40;;;29.63;;
1957;SDS011;979;51.076;13.748;2023-04-29T14:39:30;30.63;;;28.20;;
1957;SDS011;979;51.076;13.748;2023-04-29T14:41:58;29.47;;;27.00;;
1957;SDS011;979;51.076;13.748;2023-04-29T14:44:29;31.83;;;29.17;;
1957;SDS011;979;51.076;13.748;2023-04-29T14:46:58;30.60;;;27.63;;
1957;SDS011;979;51.076;13.748;2023-04-29T14:49:28;30.27;;;27.50;;
1957;SDS011;979;51.076;13.748;2023-04-29T14:51:57;30.57;;;28.27;;
1957;SDS011;979;51.076;13.748;2023-04-29T14:54:28;31.67;;;28.93;;
1957;SDS011;979;51.076;13.748;2023-04-29T14:56:57;30.23;;;27.47;;
1957;SDS011;979;51.076;13.748;2023-04-29T14:59:25;31.27;;;28.50;;
1957;SDS011;979;51.076;13.748;2023-04-29T15:01:55;28.90;;;26.40;;
1957;SDS011;979;51.076;13.748;2023-04-29T15:04:24;31.03;;;28.43;;
1957;SDS011;979;51.076;13.748;2023-04-29T15:06:55;30.07;;;27.53;;
1957;SDS011;979;51.076;13.748;2023-04-29T15:09:24;30.40;;;27.67;;
1957;SDS011;979;51.076;13.748;2023-04-29T15:11:53;31.33;;;28.73;;
1957;SDS011;979;51.076;13.748;2023-04-29T15:14:21;29.70;;;27.17;;
1957;SDS011;979;51.076;13.748;2023-04-29T15:16:49;30.13;;;27.40;;
1957;SDS011;979;51.076;13.748;2023-04-29T15:19:18;32.23;;;29.53;;
1957;SDS011;979;51.076;13.748;2023-04-29T15:21:46;30.93;;;28.27;;
1957;SDS011;979;51.076;13.748;2023-04-29T15:24:16;30.70;;;28.07;;
1957;SDS011;979;51.076;13.748;2023-04-29T15:26:45;31.43;;;28.87;;
1957;SDS011;979;51.076;13.748;2023-04-29T15:29:13;31.00;;;28.37;;
1957;SDS011;979;51.076;13.748;2023-04-29T15:31:41;30.60;;;28.07;;
1957;SDS011;979;51.076;13.748;2023-04-29T15:34:10;31.63;;;28.93;;
1957;SDS011;979;51.076;13.748;2023-04-29T15:36:39;31.03;;;28.23;;
1957;SDS011;979;51.076;13.748;2023-04-29T15:39:08;29.33;;;27.00;;
1957;SDS011;979;51.076;13.748;2023-04-29T15:41:39;31.33;;;28.73;;
1957;SDS011;979;51.076;13.748;2023-04-29T15:44:07;31.23;;;28.57;;
1957;SDS011;979;51.076;13.748;2023-04-29T15:46:37;30.27;;;27.73;;